createdAt,value
2019-01-11T00:00:46.699Z,18.25
2019-01-11T00:01:50.935Z,18.24
2019-01-11T00:02:54.501Z,18.23
2019-01-11T00:03:58.083Z,18.21
2019-01-11T00:05:01.600Z,18.20
2019-01-11T00:06:05.385Z,18.20
2019-01-11T00:07:08.882Z,18.20
2019-01-11T00:08:12.596Z,18.19
2019-01-11T00:09:17.194Z,18.18
2019-01-11T00:10:20.832Z,18.16
2019-01-11T00:11:24.425Z,18.16
2019-01-11T00:12:28.012Z,18.15
2019-01-11T00:13:31.508Z,18.13
2019-01-11T00:14:34.993Z,18.13
2019-01-11T00:15:39.157Z,18.13
2019-01-11T00:16:42.712Z,18.11
2019-01-11T00:17:46.202Z,18.11
2019-01-11T00:18:49.835Z,18.09
2019-01-11T00:19:53.339Z,18.07
2019-01-11T00:20:56.935Z,18.06
2019-01-11T00:22:00.493Z,18.06
2019-01-11T00:23:04.125Z,18.06
2019-01-11T00:24:07.873Z,18.04
2019-01-11T00:25:11.538Z,18.03
2019-01-11T00:26:15.098Z,18.01
2019-01-11T00:27:18.586Z,18.02
2019-01-11T00:28:22.107Z,18.01
2019-01-11T00:29:25.669Z,18.01
2019-01-11T00:30:29.342Z,18.00
2019-01-11T00:31:33.022Z,17.99
2019-01-11T00:32:36.588Z,17.98
2019-01-11T00:33:40.189Z,17.96
2019-01-11T00:34:43.665Z,17.96
2019-01-11T00:35:47.310Z,17.96
2019-01-11T00:36:50.892Z,17.95
2019-01-11T00:37:54.448Z,17.95
2019-01-11T00:38:57.951Z,17.93
2019-01-11T00:40:01.507Z,17.93
2019-01-11T00:41:05.168Z,17.92
2019-01-11T00:42:08.763Z,17.92
2019-01-11T00:43:15.206Z,17.90
2019-01-11T00:44:17.639Z,17.91
2019-01-11T00:45:21.148Z,17.88
2019-01-11T00:46:24.788Z,17.88
2019-01-11T00:47:28.382Z,17.87
2019-01-11T00:48:31.892Z,17.86
2019-01-11T00:49:35.388Z,17.86
2019-01-11T00:50:38.979Z,17.85
2019-01-11T00:51:42.472Z,17.84
2019-01-11T00:52:46.126Z,17.84
2019-01-11T00:53:49.786Z,17.83
2019-01-11T00:54:53.420Z,17.82
2019-01-11T00:55:56.984Z,17.82
2019-01-11T00:57:00.471Z,17.81
2019-01-11T00:58:04.155Z,17.77
2019-01-11T00:59:07.723Z,17.78
2019-01-11T01:00:22.423Z,17.78
2019-01-11T01:01:25.991Z,17.76
2019-01-11T01:02:29.668Z,17.76
2019-01-11T01:03:33.324Z,17.76
2019-01-11T01:04:36.973Z,17.74
2019-01-11T01:05:40.542Z,17.74
2019-01-11T01:06:44.166Z,17.74
2019-01-11T01:07:48.011Z,17.74
2019-01-11T01:08:51.649Z,17.72
2019-01-11T01:09:55.193Z,17.72
2019-01-11T01:10:59.539Z,17.71
2019-01-11T01:12:03.230Z,17.70
2019-01-11T01:13:06.880Z,17.69
2019-01-11T01:14:10.582Z,17.69
2019-01-11T01:15:14.785Z,17.68
2019-01-11T01:16:18.432Z,17.67
2019-01-11T01:17:21.917Z,17.67
2019-01-11T01:18:25.468Z,17.66
2019-01-11T01:19:29.218Z,17.64
2019-01-11T01:20:32.702Z,17.65
2019-01-11T01:21:36.285Z,17.63
2019-01-11T01:22:39.860Z,17.63
2019-01-11T01:23:43.410Z,17.62
2019-01-11T01:24:47.025Z,17.62
2019-01-11T01:25:50.644Z,17.61
2019-01-11T01:26:54.283Z,17.59
2019-01-11T01:27:57.884Z,17.59
2019-01-11T01:29:01.374Z,17.58
2019-01-11T01:30:07.964Z,17.57
2019-01-11T01:31:11.555Z,17.58
2019-01-11T01:32:15.035Z,17.56
2019-01-11T01:33:18.608Z,17.56
2019-01-11T01:34:22.083Z,17.56
2019-01-11T01:35:25.666Z,17.54
2019-01-11T01:36:29.177Z,17.54
2019-01-11T01:37:32.738Z,17.51
2019-01-11T01:38:36.278Z,17.53
2019-01-11T01:39:39.770Z,17.53
2019-01-11T01:40:43.575Z,17.52
2019-01-11T01:41:47.166Z,17.52
2019-01-11T01:42:50.723Z,17.51
2019-01-11T01:43:54.196Z,17.51
2019-01-11T01:44:57.713Z,17.50
2019-01-11T01:46:01.367Z,17.49
2019-01-11T01:47:05.024Z,17.50
2019-01-11T01:48:08.611Z,17.46
2019-01-11T01:49:12.120Z,17.47
2019-01-11T01:50:15.839Z,17.48
2019-01-11T01:51:19.426Z,17.47
2019-01-11T01:52:22.996Z,17.46
2019-01-11T01:53:26.502Z,17.47
2019-01-11T01:54:30.241Z,17.45
2019-01-11T01:55:33.825Z,17.44
2019-01-11T01:56:37.440Z,17.44
2019-01-11T01:57:40.986Z,17.44
2019-01-11T01:58:44.515Z,17.42
2019-01-11T01:59:48.139Z,17.42
2019-01-11T02:00:51.821Z,17.42
2019-01-11T02:01:55.351Z,17.41
2019-01-11T02:02:58.904Z,17.40
2019-01-11T02:04:02.475Z,17.39
2019-01-11T02:05:08.681Z,17.39
2019-01-11T02:06:12.557Z,17.40
2019-01-11T02:07:16.153Z,17.37
2019-01-11T02:08:19.800Z,17.38
2019-01-11T02:09:23.413Z,17.37
2019-01-11T02:10:27.089Z,17.37
2019-01-11T02:11:30.807Z,17.36
2019-01-11T02:12:34.400Z,17.36
2019-01-11T02:13:37.964Z,17.35
2019-01-11T02:14:42.645Z,17.34
2019-01-11T02:15:46.302Z,17.34
2019-01-11T02:16:49.784Z,17.34
2019-01-11T02:17:53.335Z,17.33
2019-01-11T02:18:56.923Z,17.33
2019-01-11T02:20:00.647Z,17.32
2019-01-11T02:21:04.234Z,17.32
2019-01-11T02:22:07.901Z,17.32
2019-01-11T02:23:11.485Z,17.32
2019-01-11T02:24:14.998Z,17.28
2019-01-11T02:25:18.662Z,17.31
2019-01-11T02:26:22.153Z,17.31
2019-01-11T02:27:25.743Z,17.30
2019-01-11T02:28:29.255Z,17.29
2019-01-11T02:29:32.826Z,17.29
2019-01-11T02:30:36.398Z,17.28
2019-01-11T02:31:39.953Z,17.26
2019-01-11T02:32:43.448Z,17.27
2019-01-11T02:33:46.978Z,17.27
2019-01-11T02:34:50.547Z,17.27
2019-01-11T02:35:54.089Z,17.26
2019-01-11T02:36:57.600Z,17.25
2019-01-11T02:38:01.240Z,17.25
2019-01-11T02:39:07.046Z,17.23
2019-01-11T02:40:11.886Z,17.23
2019-01-11T02:41:15.413Z,17.22
2019-01-11T02:42:18.983Z,17.22
2019-01-11T02:43:22.544Z,17.22
2019-01-11T02:44:26.098Z,17.22
2019-01-11T02:45:29.580Z,17.21
2019-01-11T02:46:33.146Z,17.20
2019-01-11T02:47:36.711Z,17.20
2019-01-11T02:48:40.204Z,17.19
2019-01-11T02:49:44.480Z,17.20
2019-01-11T02:50:47.980Z,17.19
2019-01-11T02:51:51.535Z,17.19
2019-01-11T02:52:55.062Z,17.18
2019-01-11T02:53:58.688Z,17.18
2019-01-11T02:55:02.236Z,17.15
2019-01-11T02:56:05.822Z,17.18
2019-01-11T02:57:09.386Z,17.17
2019-01-11T02:58:12.871Z,17.17
2019-01-11T02:59:16.359Z,17.16
2019-01-11T03:00:21.028Z,17.16
2019-01-11T03:01:24.598Z,17.15
2019-01-11T03:02:28.154Z,17.15
2019-01-11T03:03:31.642Z,17.14
2019-01-11T03:04:35.263Z,17.14
2019-01-11T03:05:38.857Z,17.13
2019-01-11T03:06:42.420Z,17.12
2019-01-11T03:07:46.719Z,17.13
2019-01-11T03:08:50.344Z,17.13
2019-01-11T03:09:54.107Z,17.12
2019-01-11T03:10:57.600Z,17.12
2019-01-11T03:12:01.104Z,17.10
2019-01-11T03:13:04.941Z,17.10
2019-01-11T03:14:08.504Z,17.11
2019-01-11T03:15:13.047Z,17.11
2019-01-11T03:16:16.650Z,17.10
2019-01-11T03:17:20.273Z,17.10
2019-01-11T03:18:23.882Z,17.08
2019-01-11T03:19:27.374Z,17.08
2019-01-11T03:20:31.008Z,17.09
2019-01-11T03:21:34.589Z,17.08
2019-01-11T03:22:38.163Z,17.09
2019-01-11T03:23:41.660Z,17.08
2019-01-11T03:24:45.225Z,17.07
2019-01-11T03:25:48.728Z,17.06
2019-01-11T03:26:52.249Z,17.06
2019-01-11T03:27:55.816Z,17.07
2019-01-11T03:28:59.309Z,17.06
2019-01-11T03:30:02.887Z,17.06
2019-01-11T03:31:08.118Z,17.05
2019-01-11T03:32:11.667Z,17.05
2019-01-11T03:33:15.172Z,17.04
2019-01-11T03:34:18.672Z,17.04
2019-01-11T03:35:22.224Z,17.03
2019-01-11T03:36:25.833Z,17.03
2019-01-11T03:37:29.318Z,17.03
2019-01-11T03:38:32.799Z,17.02
2019-01-11T03:39:36.281Z,17.01
2019-01-11T03:40:39.881Z,17.00
2019-01-11T03:41:44.997Z,17.01
2019-01-11T03:42:48.569Z,17.00
2019-01-11T03:43:52.066Z,16.99
2019-01-11T03:44:55.940Z,16.99
2019-01-11T03:45:59.467Z,16.98
2019-01-11T03:47:03.102Z,16.98
2019-01-11T03:48:06.742Z,16.97
2019-01-11T03:49:10.358Z,16.96
2019-01-11T03:50:16.091Z,16.96
2019-01-11T03:51:19.681Z,16.95
2019-01-11T03:52:23.178Z,16.94
2019-01-11T03:53:26.740Z,16.94
2019-01-11T03:54:30.308Z,16.95
2019-01-11T03:55:33.959Z,16.94
2019-01-11T03:56:37.487Z,16.97
2019-01-11T03:57:41.146Z,16.98
2019-01-11T03:58:44.710Z,17.00
2019-01-11T03:59:48.206Z,17.02
2019-01-11T04:00:51.762Z,17.05
2019-01-11T04:01:55.350Z,17.08
2019-01-11T04:02:58.912Z,17.10
2019-01-11T04:04:02.473Z,17.15
2019-01-11T04:05:08.296Z,17.19
2019-01-11T04:06:12.032Z,17.26
2019-01-11T04:07:15.558Z,17.33
2019-01-11T04:08:19.121Z,17.42
2019-01-11T04:09:22.606Z,17.52
2019-01-11T04:10:26.180Z,17.62
2019-01-11T04:11:29.674Z,17.71
2019-01-11T04:12:33.202Z,17.76
2019-01-11T04:13:36.692Z,17.84
2019-01-11T04:14:40.255Z,17.93
2019-01-11T04:15:43.748Z,18.04
2019-01-11T04:16:47.387Z,18.15
2019-01-11T04:18:08.903Z,18.21
2019-01-11T04:19:12.476Z,18.27
2019-01-11T04:20:18.840Z,18.39
2019-01-11T04:21:22.412Z,18.52
2019-01-11T04:22:29.735Z,18.56
2019-01-11T04:23:33.405Z,18.61
2019-01-11T04:24:38.530Z,18.64
2019-01-11T04:25:42.101Z,18.68
2019-01-11T04:26:45.600Z,18.72
2019-01-11T04:27:50.736Z,18.81
2019-01-11T04:28:54.321Z,18.85
2019-01-11T04:29:57.815Z,18.87
2019-01-11T04:31:01.493Z,18.92
2019-01-11T04:32:05.114Z,18.90
2019-01-11T04:33:08.619Z,18.95
2019-01-11T04:34:12.221Z,18.94
2019-01-11T04:35:15.936Z,18.94
2019-01-11T04:36:19.450Z,18.94
2019-01-11T04:37:22.995Z,18.97
2019-01-11T04:38:26.549Z,18.97
2019-01-11T04:39:30.706Z,18.99
2019-01-11T04:40:34.578Z,19.02
2019-01-11T04:41:38.224Z,19.02
2019-01-11T04:42:41.857Z,19.06
2019-01-11T04:43:45.414Z,19.07
2019-01-11T04:44:48.943Z,19.08
2019-01-11T04:45:52.487Z,19.05
2019-01-11T04:46:55.960Z,19.06
2019-01-11T04:47:59.552Z,19.11
2019-01-11T04:49:03.048Z,19.11
2019-01-11T04:50:09.624Z,19.11
2019-01-11T04:51:13.449Z,19.16
2019-01-11T04:52:17.079Z,19.16
2019-01-11T04:53:20.753Z,19.18
2019-01-11T04:54:24.246Z,19.14
2019-01-11T04:55:27.811Z,19.14
2019-01-11T04:56:31.337Z,19.12
2019-01-11T04:57:34.993Z,19.10
2019-01-11T04:58:38.511Z,19.08
2019-01-11T04:59:42.049Z,19.05
2019-01-11T05:00:47.098Z,19.04
2019-01-11T05:01:50.588Z,19.02
2019-01-11T05:02:54.137Z,18.98
2019-01-11T05:03:57.628Z,18.93
2019-01-11T05:05:01.184Z,18.91
2019-01-11T05:06:04.742Z,18.89
2019-01-11T05:07:08.395Z,18.84
2019-01-11T05:08:11.996Z,18.80
2019-01-11T05:09:15.479Z,18.76
2019-01-11T05:10:19.334Z,18.74
2019-01-11T05:11:22.871Z,18.70
2019-01-11T05:12:26.424Z,18.72
2019-01-11T05:13:31.581Z,18.74
2019-01-11T05:14:35.073Z,18.76
2019-01-11T05:15:38.601Z,18.75
2019-01-11T05:16:42.114Z,18.78
2019-01-11T05:17:45.835Z,18.81
2019-01-11T05:18:49.350Z,18.86
2019-01-11T05:19:52.900Z,18.91
2019-01-11T05:20:56.556Z,18.96
2019-01-11T05:22:00.082Z,18.99
2019-01-11T05:23:03.564Z,19.05
2019-01-11T05:24:07.167Z,19.08
2019-01-11T05:25:10.905Z,19.10
2019-01-11T05:26:14.468Z,19.14
2019-01-11T05:27:18.011Z,19.13
2019-01-11T05:28:21.511Z,19.16
2019-01-11T05:29:25.001Z,19.19
2019-01-11T05:30:29.114Z,19.16
2019-01-11T05:31:32.676Z,19.15
2019-01-11T05:32:36.258Z,19.14
2019-01-11T05:33:39.782Z,19.11
2019-01-11T05:34:43.264Z,19.13
2019-01-11T05:35:46.860Z,19.08
2019-01-11T05:36:50.435Z,19.08
2019-01-11T05:37:53.958Z,19.06
2019-01-11T05:38:57.430Z,19.06
2019-01-11T05:40:02.114Z,19.08
2019-01-11T05:41:05.813Z,19.13
2019-01-11T05:42:09.398Z,19.14
2019-01-11T05:43:12.915Z,19.17
2019-01-11T05:44:16.427Z,19.17
2019-01-11T05:45:19.992Z,19.16
2019-01-11T05:46:23.529Z,19.17
2019-01-11T05:47:27.096Z,19.17
2019-01-11T05:48:30.644Z,19.15
2019-01-11T05:49:34.195Z,19.17
2019-01-11T05:50:37.744Z,19.19
2019-01-11T05:51:41.270Z,19.17
2019-01-11T05:52:45.054Z,19.15
2019-01-11T05:53:48.553Z,19.15
2019-01-11T05:54:52.064Z,19.11
2019-01-11T05:55:55.647Z,19.08
2019-01-11T05:56:59.281Z,19.07
2019-01-11T05:58:09.883Z,19.04
2019-01-11T05:59:13.368Z,19.03
2019-01-11T06:00:17.025Z,19.04
2019-01-11T06:01:20.585Z,19.04
2019-01-11T06:02:24.173Z,19.04
2019-01-11T06:03:27.802Z,19.06
2019-01-11T06:04:44.188Z,19.11
2019-01-11T06:05:47.815Z,19.13
2019-01-11T06:07:04.450Z,19.13
2019-01-11T06:08:09.668Z,19.15
2019-01-11T06:09:13.232Z,19.14
2019-01-11T06:10:17.077Z,19.14
2019-01-11T06:11:20.622Z,19.15
2019-01-11T06:12:24.112Z,19.11
2019-01-11T06:13:27.699Z,19.08
2019-01-11T06:14:31.256Z,19.08
2019-01-11T06:15:34.840Z,19.04
2019-01-11T06:16:38.410Z,19.02
2019-01-11T06:17:41.914Z,18.97
2019-01-11T06:18:45.433Z,18.99
2019-01-11T06:19:48.932Z,18.98
2019-01-11T06:20:52.643Z,18.96
2019-01-11T06:21:56.212Z,19.00
2019-01-11T06:22:59.771Z,19.00
2019-01-11T06:24:03.399Z,19.06
2019-01-11T06:25:07.421Z,19.11
2019-01-11T06:26:11.007Z,19.13
2019-01-11T06:27:14.549Z,19.12
2019-01-11T06:28:18.283Z,19.12
2019-01-11T06:29:21.815Z,19.14
2019-01-11T06:30:25.378Z,19.13
2019-01-11T06:31:28.893Z,19.12
2019-01-11T06:32:32.460Z,19.12
2019-01-11T06:33:36.211Z,19.11
2019-01-11T06:34:39.833Z,19.08
2019-01-11T06:35:43.392Z,19.08
2019-01-11T06:36:46.952Z,19.08
2019-01-11T06:37:50.532Z,19.05
2019-01-11T06:38:54.022Z,19.04
2019-01-11T06:39:57.532Z,19.03
2019-01-11T06:41:01.130Z,19.02
2019-01-11T06:42:06.483Z,19.01
2019-01-11T06:43:09.991Z,19.02
2019-01-11T06:44:13.690Z,19.04
2019-01-11T06:45:17.288Z,19.08
2019-01-11T06:46:22.433Z,19.06
2019-01-11T06:47:26.002Z,19.13
2019-01-11T06:48:31.154Z,19.12
2019-01-11T06:49:34.632Z,19.12
2019-01-11T06:50:38.205Z,19.10
2019-01-11T06:51:41.718Z,19.05
2019-01-11T06:52:45.373Z,19.08
2019-01-11T06:53:48.887Z,19.07
2019-01-11T06:54:52.393Z,19.04
2019-01-11T06:55:55.913Z,19.01
2019-01-11T06:56:59.478Z,18.98
2019-01-11T06:58:03.035Z,18.97
2019-01-11T06:59:08.295Z,18.96
2019-01-11T07:00:16.421Z,18.95
2019-01-11T07:01:19.997Z,18.97
2019-01-11T07:02:23.644Z,18.98
2019-01-11T07:03:27.151Z,18.99
2019-01-11T07:04:30.773Z,19.04
2019-01-11T07:05:34.297Z,19.06
2019-01-11T07:06:37.894Z,19.09
2019-01-11T07:07:41.630Z,19.10
2019-01-11T07:08:45.669Z,19.10
2019-01-11T07:09:49.302Z,19.11
2019-01-11T07:10:52.915Z,19.12
2019-01-11T07:11:56.575Z,19.09
2019-01-11T07:13:00.254Z,19.11
2019-01-11T07:14:04.013Z,19.11
2019-01-11T07:15:09.918Z,19.10
2019-01-11T07:16:13.832Z,19.10
2019-01-11T07:17:17.362Z,19.09
2019-01-11T07:18:20.908Z,19.06
2019-01-11T07:19:24.408Z,19.03
2019-01-11T07:20:28.002Z,19.02
2019-01-11T07:21:31.554Z,19.03
2019-01-11T07:22:35.156Z,19.00
2019-01-11T07:23:38.924Z,19.08
2019-01-11T07:24:42.407Z,19.12
2019-01-11T07:25:45.988Z,19.18
2019-01-11T07:26:49.494Z,19.19
2019-01-11T07:27:57.630Z,19.21
2019-01-11T07:29:01.225Z,19.21
2019-01-11T07:30:08.132Z,19.22
2019-01-11T07:31:12.680Z,19.22
2019-01-11T07:32:16.225Z,19.19
2019-01-11T07:33:21.509Z,19.18
2019-01-11T07:34:25.394Z,19.17
2019-01-11T07:35:30.475Z,19.16
2019-01-11T07:36:35.304Z,19.13
2019-01-11T07:37:38.823Z,19.11
2019-01-11T07:38:42.333Z,19.08
2019-01-11T07:39:46.020Z,19.09
2019-01-11T07:40:49.628Z,19.10
2019-01-11T07:41:53.628Z,19.09
2019-01-11T07:42:57.135Z,19.10
2019-01-11T07:44:00.674Z,19.14
2019-01-11T07:45:05.775Z,19.19
2019-01-11T07:46:09.520Z,19.17
2019-01-11T07:47:13.066Z,19.20
2019-01-11T07:48:16.591Z,19.21
2019-01-11T07:49:23.222Z,19.21
2019-01-11T07:50:25.297Z,19.23
2019-01-11T07:51:28.878Z,19.23
2019-01-11T07:52:32.684Z,19.22
2019-01-11T07:53:36.468Z,19.21
2019-01-11T07:54:40.055Z,19.19
2019-01-11T07:55:43.570Z,19.17
2019-01-11T07:56:47.062Z,19.17
2019-01-11T07:57:50.570Z,19.14
2019-01-11T07:58:54.084Z,19.12
2019-01-11T07:59:57.582Z,19.10
2019-01-11T08:01:01.166Z,19.11
2019-01-11T08:02:04.889Z,19.14
2019-01-11T08:03:08.632Z,19.15
2019-01-11T08:04:12.278Z,19.17
2019-01-11T08:05:15.782Z,19.19
2019-01-11T08:06:19.740Z,19.19
2019-01-11T08:07:23.400Z,19.22
2019-01-11T08:08:26.869Z,19.22
2019-01-11T08:09:30.554Z,19.20
2019-01-11T08:10:55.014Z,19.21
2019-01-11T08:11:58.509Z,19.20
2019-01-11T08:13:02.024Z,19.16
2019-01-11T08:14:06.999Z,19.16
2019-01-11T08:15:13.311Z,19.16
2019-01-11T08:16:16.916Z,19.15
2019-01-11T08:17:20.476Z,19.12
2019-01-11T08:18:24.026Z,19.12
2019-01-11T08:19:27.513Z,19.10
2019-01-11T08:20:31.560Z,19.14
2019-01-11T08:21:35.230Z,19.13
2019-01-11T08:22:42.419Z,19.19
2019-01-11T08:23:45.996Z,19.17
2019-01-11T08:24:51.158Z,19.20
2019-01-11T08:25:54.715Z,19.19
2019-01-11T08:26:58.389Z,19.20
2019-01-11T08:28:01.867Z,19.24
2019-01-11T08:29:05.895Z,19.25
2019-01-11T08:30:12.783Z,19.24
2019-01-11T08:31:16.272Z,19.24
2019-01-11T08:32:19.987Z,19.23
2019-01-11T08:33:23.603Z,19.19
2019-01-11T08:34:27.077Z,19.19
2019-01-11T08:35:30.602Z,19.17
2019-01-11T08:36:34.241Z,19.15
2019-01-11T08:37:38.387Z,19.10
2019-01-11T08:38:41.907Z,19.11
2019-01-11T08:39:45.530Z,19.10
2019-01-11T08:40:49.098Z,19.10
2019-01-11T08:41:52.668Z,19.13
2019-01-11T08:42:56.247Z,19.14
2019-01-11T08:43:59.765Z,19.15
2019-01-11T08:45:04.697Z,19.18
2019-01-11T08:46:08.320Z,19.21
2019-01-11T08:47:11.982Z,19.22
2019-01-11T08:48:15.561Z,19.23
2019-01-11T08:49:19.140Z,19.24
2019-01-11T08:50:22.844Z,19.26
2019-01-11T08:51:26.466Z,19.23
2019-01-11T08:52:30.046Z,19.23
2019-01-11T08:53:35.204Z,19.24
2019-01-11T08:54:38.809Z,19.18
2019-01-11T08:55:42.401Z,19.19
2019-01-11T08:56:45.950Z,19.16
2019-01-11T08:57:49.666Z,19.15
2019-01-11T08:58:53.344Z,19.11
2019-01-11T08:59:57.170Z,19.10
2019-01-11T09:01:00.709Z,19.10
2019-01-11T09:02:04.391Z,19.10
2019-01-11T09:03:08.017Z,19.13
2019-01-11T09:04:11.540Z,19.17
2019-01-11T09:05:15.306Z,19.19
2019-01-11T09:06:18.933Z,19.19
2019-01-11T09:07:22.425Z,19.24
2019-01-11T09:08:25.991Z,19.27
2019-01-11T09:09:29.588Z,19.27
2019-01-11T09:10:33.193Z,19.27
2019-01-11T09:11:36.816Z,19.26
2019-01-11T09:12:40.380Z,19.27
2019-01-11T09:13:43.935Z,19.24
2019-01-11T09:14:48.120Z,19.21
2019-01-11T09:15:51.619Z,19.21
2019-01-11T09:16:55.241Z,19.21
2019-01-11T09:18:03.134Z,19.16
2019-01-11T09:19:06.819Z,19.13
2019-01-11T09:20:10.619Z,19.08
2019-01-11T09:21:14.109Z,19.03
2019-01-11T09:22:17.679Z,18.99
2019-01-11T09:23:21.274Z,18.96
2019-01-11T09:24:24.820Z,18.94
2019-01-11T09:25:28.415Z,18.91
2019-01-11T09:26:31.910Z,18.89
2019-01-11T09:27:35.417Z,18.88
2019-01-11T09:28:39.054Z,18.88
2019-01-11T09:29:42.633Z,18.85
2019-01-11T09:30:47.047Z,18.83
2019-01-11T09:31:54.003Z,18.80
2019-01-11T09:32:58.297Z,18.82
2019-01-11T09:34:02.596Z,18.85
2019-01-11T09:35:06.873Z,18.85
2019-01-11T09:36:11.008Z,18.86
2019-01-11T09:37:14.906Z,18.87
2019-01-11T09:38:18.485Z,18.89
2019-01-11T09:39:22.020Z,18.91
2019-01-11T09:40:25.650Z,18.95
2019-01-11T09:41:29.240Z,18.97
2019-01-11T09:42:32.770Z,19.00
2019-01-11T09:43:36.252Z,19.01
2019-01-11T09:44:39.836Z,19.05
2019-01-11T09:45:43.412Z,19.10
2019-01-11T09:46:47.248Z,19.16
2019-01-11T09:47:50.814Z,19.23
2019-01-11T09:48:54.367Z,19.31
2019-01-11T09:49:57.868Z,19.35
2019-01-11T09:51:01.489Z,19.41
2019-01-11T09:52:05.213Z,19.40
2019-01-11T09:53:08.874Z,19.44
2019-01-11T09:54:12.324Z,19.43
2019-01-11T09:55:16.071Z,19.42
2019-01-11T09:56:19.677Z,19.47
2019-01-11T09:57:24.820Z,19.46
2019-01-11T09:58:28.324Z,19.47
2019-01-11T09:59:35.122Z,19.50
2019-01-11T10:00:37.861Z,19.46
2019-01-11T10:01:41.496Z,19.45
2019-01-11T10:02:46.711Z,19.39
2019-01-11T10:03:50.276Z,19.42
2019-01-11T10:04:53.764Z,19.46
2019-01-11T10:05:57.571Z,19.42
2019-01-11T10:07:02.762Z,19.48
2019-01-11T10:08:06.541Z,19.51
2019-01-11T10:09:10.318Z,19.53
2019-01-11T10:10:14.569Z,19.53
2019-01-11T10:11:18.168Z,19.49
2019-01-11T10:12:21.791Z,19.49
2019-01-11T10:13:25.254Z,19.51
2019-01-11T10:14:28.800Z,19.48
2019-01-11T10:15:32.448Z,19.46
2019-01-11T10:16:36.040Z,19.46
2019-01-11T10:17:39.660Z,19.45
2019-01-11T10:18:43.152Z,19.43
2019-01-11T10:19:46.693Z,19.39
2019-01-11T10:20:51.535Z,19.34
2019-01-11T10:21:55.172Z,19.34
2019-01-11T10:22:58.838Z,19.31
2019-01-11T10:24:02.392Z,19.29
2019-01-11T10:25:08.510Z,19.26
2019-01-11T10:26:12.736Z,19.23
2019-01-11T10:27:16.264Z,19.21
2019-01-11T10:28:19.906Z,19.19
2019-01-11T10:29:23.576Z,19.17
2019-01-11T10:30:27.214Z,19.15
2019-01-11T10:31:30.790Z,19.09
2019-01-11T10:32:34.382Z,19.09
2019-01-11T10:33:37.957Z,19.07
2019-01-11T10:34:41.469Z,19.06
2019-01-11T10:35:45.105Z,19.04
2019-01-11T10:36:48.745Z,19.01
2019-01-11T10:37:52.271Z,19.02
2019-01-11T10:38:55.839Z,19.00
2019-01-11T10:39:59.413Z,19.02
2019-01-11T10:41:03.096Z,19.04
2019-01-11T10:42:06.932Z,19.05
2019-01-11T10:43:10.579Z,19.10
2019-01-11T10:44:14.262Z,19.15
2019-01-11T10:45:20.085Z,19.20
2019-01-11T10:46:34.391Z,19.26
2019-01-11T10:47:38.017Z,19.30
2019-01-11T10:48:41.593Z,19.32
2019-01-11T10:49:45.202Z,19.33
2019-01-11T10:50:48.771Z,19.33
2019-01-11T10:51:52.364Z,19.33
2019-01-11T10:52:55.990Z,19.33
2019-01-11T10:53:59.765Z,19.34
2019-01-11T10:55:03.524Z,19.34
2019-01-11T10:56:07.003Z,19.30
2019-01-11T10:57:10.844Z,19.32
2019-01-11T10:58:14.422Z,19.31
2019-01-11T10:59:17.909Z,19.29
2019-01-11T11:00:24.043Z,19.27
2019-01-11T11:01:27.644Z,19.27
2019-01-11T11:02:31.146Z,19.27
2019-01-11T11:03:34.738Z,19.27
2019-01-11T11:04:38.414Z,19.25
2019-01-11T11:05:41.945Z,19.30
2019-01-11T11:06:45.481Z,19.30
2019-01-11T11:07:49.118Z,19.34
2019-01-11T11:08:52.675Z,19.34
2019-01-11T11:09:56.227Z,19.32
2019-01-11T11:10:59.874Z,19.32
2019-01-11T11:12:03.618Z,19.33
2019-01-11T11:13:07.170Z,19.30
2019-01-11T11:14:10.867Z,19.30
2019-01-11T11:15:16.723Z,19.28
2019-01-11T11:16:20.483Z,19.27
2019-01-11T11:17:24.079Z,19.25
2019-01-11T11:18:28.085Z,19.22
2019-01-11T11:19:31.722Z,19.22
2019-01-11T11:20:35.282Z,19.20
2019-01-11T11:21:38.812Z,19.20
2019-01-11T11:22:43.150Z,19.21
2019-01-11T11:23:46.741Z,19.24
2019-01-11T11:24:50.306Z,19.23
2019-01-11T11:25:53.796Z,19.27
2019-01-11T11:26:57.462Z,19.30
2019-01-11T11:28:01.187Z,19.30
2019-01-11T11:29:04.925Z,19.30
2019-01-11T11:30:11.516Z,19.30
2019-01-11T11:31:15.123Z,19.29
2019-01-11T11:32:20.340Z,19.29
2019-01-11T11:33:23.919Z,19.29
2019-01-11T11:34:27.702Z,19.30
2019-01-11T11:35:31.331Z,19.26
2019-01-11T11:36:34.937Z,19.25
2019-01-11T11:37:38.604Z,19.25
2019-01-11T11:38:42.189Z,19.24
2019-01-11T11:39:45.721Z,19.23
2019-01-11T11:40:49.448Z,19.21
2019-01-11T11:41:53.171Z,19.21
2019-01-11T11:43:06.016Z,19.21
2019-01-11T11:44:05.406Z,19.21
2019-01-11T11:45:09.286Z,19.24
2019-01-11T11:46:15.513Z,19.29
2019-01-11T11:47:19.165Z,19.31
2019-01-11T11:48:22.733Z,19.30
2019-01-11T11:49:26.248Z,19.29
2019-01-11T11:50:29.906Z,19.29
2019-01-11T11:51:33.546Z,19.28
2019-01-11T11:52:37.067Z,19.25
2019-01-11T11:53:40.633Z,19.25
2019-01-11T11:54:44.146Z,19.27
2019-01-11T11:55:47.709Z,19.25
2019-01-11T11:56:51.201Z,19.21
2019-01-11T11:57:54.885Z,19.22
2019-01-11T11:58:58.452Z,19.20
2019-01-11T12:00:01.979Z,19.21
2019-01-11T12:01:07.270Z,19.20
2019-01-11T12:02:10.840Z,19.19
2019-01-11T12:03:14.365Z,19.22
2019-01-11T12:04:18.011Z,19.24
2019-01-11T12:05:21.621Z,19.26
2019-01-11T12:06:25.206Z,19.27
2019-01-11T12:07:28.842Z,19.28
2019-01-11T12:08:32.581Z,19.30
2019-01-11T12:09:36.136Z,19.30
2019-01-11T12:10:39.782Z,19.31
2019-01-11T12:11:43.337Z,19.30
2019-01-11T12:12:46.829Z,19.27
2019-01-11T12:13:50.433Z,19.26
2019-01-11T12:14:54.029Z,19.24
2019-01-11T12:15:57.586Z,19.23
2019-01-11T12:17:01.168Z,19.23
2019-01-11T12:18:05.002Z,19.20
2019-01-11T12:19:08.686Z,19.18
2019-01-11T12:20:15.587Z,19.16
2019-01-11T12:21:19.232Z,19.19
2019-01-11T12:22:22.891Z,19.20
2019-01-11T12:23:26.462Z,19.22
2019-01-11T12:24:30.044Z,19.25
2019-01-11T12:25:33.606Z,19.23
2019-01-11T12:26:37.108Z,19.27
2019-01-11T12:27:40.610Z,19.25
2019-01-11T12:28:44.153Z,19.26
2019-01-11T12:29:47.677Z,19.25
2019-01-11T12:30:51.244Z,19.26
2019-01-11T12:31:54.754Z,19.26
2019-01-11T12:32:58.315Z,19.24
2019-01-11T12:34:01.864Z,19.24
2019-01-11T12:35:06.111Z,19.23
2019-01-11T12:36:09.666Z,19.21
2019-01-11T12:37:13.197Z,19.20
2019-01-11T12:38:16.701Z,19.19
2019-01-11T12:39:20.241Z,19.17
2019-01-11T12:40:23.893Z,19.16
2019-01-11T12:41:27.385Z,19.18
2019-01-11T12:42:30.893Z,19.19
2019-01-11T12:43:34.543Z,19.22
2019-01-11T12:44:38.111Z,19.25
2019-01-11T12:45:41.702Z,19.27
2019-01-11T12:46:45.201Z,19.27
2019-01-11T12:47:48.836Z,19.28
2019-01-11T12:48:52.400Z,19.30
2019-01-11T12:49:55.894Z,19.31
2019-01-11T12:50:59.415Z,19.29
2019-01-11T12:52:03.017Z,19.33
2019-01-11T12:53:06.526Z,19.30
2019-01-11T12:54:10.079Z,19.29
2019-01-11T12:55:13.783Z,19.24
2019-01-11T12:56:17.517Z,19.25
2019-01-11T12:57:23.992Z,19.23
2019-01-11T12:58:27.634Z,19.22
2019-01-11T12:59:31.250Z,19.21
2019-01-11T13:00:34.811Z,19.22
2019-01-11T13:01:38.554Z,19.22
2019-01-11T13:02:42.233Z,19.24
2019-01-11T13:03:45.754Z,19.27
2019-01-11T13:04:49.399Z,19.28
2019-01-11T13:05:53.115Z,19.30
2019-01-11T13:06:56.669Z,19.29
2019-01-11T13:08:00.308Z,19.33
2019-01-11T13:09:05.345Z,19.33
2019-01-11T13:10:11.941Z,19.33
2019-01-11T13:11:15.580Z,19.29
2019-01-11T13:12:19.099Z,19.29
2019-01-11T13:13:27.263Z,19.27
2019-01-11T13:14:30.909Z,19.27
2019-01-11T13:15:34.555Z,19.26
2019-01-11T13:16:38.029Z,19.24
2019-01-11T13:17:41.892Z,19.21
2019-01-11T13:18:46.330Z,19.20
2019-01-11T13:19:50.199Z,19.20
2019-01-11T13:20:54.001Z,19.22
2019-01-11T13:22:00.680Z,19.21
2019-01-11T13:23:03.122Z,19.25
2019-01-11T13:24:07.279Z,19.23
2019-01-11T13:25:11.068Z,19.26
2019-01-11T13:26:14.703Z,19.27
2019-01-11T13:27:18.220Z,19.30
2019-01-11T13:28:21.801Z,19.32
2019-01-11T13:29:25.297Z,19.31
2019-01-11T13:30:28.945Z,19.29
2019-01-11T13:31:32.610Z,19.28
2019-01-11T13:32:36.190Z,19.27
2019-01-11T13:33:39.784Z,19.28
2019-01-11T13:34:43.303Z,19.27
2019-01-11T13:35:46.834Z,19.24
2019-01-11T13:36:53.918Z,19.23
2019-01-11T13:37:55.653Z,19.22
2019-01-11T13:38:59.212Z,19.21
2019-01-11T13:40:03.299Z,19.20
2019-01-11T13:41:06.836Z,19.22
2019-01-11T13:42:10.406Z,19.22
2019-01-11T13:43:13.950Z,19.26